Time;durP1;ratioP1;P1;durP2;ratioP2;P2;SDS_P1;SDS_P2;PMS_P1;PMS_P2;Temp;Humidity;BMP_temperature;BMP_pressure;BME280_temperature;BME280_humidity;BME280_pressure;Samples;Min_cycle;Max_cycle;Signal;HPM_P1;HPM_P2
2022/08/23 00:01:19;;;;;;;1.20;0.70;;;17.10;99.90;;;;;;6298130;22;20015;-89
2022/08/23 00:03:45;;;;;;;0.98;0.77;;;17.00;99.90;;;;;;6305683;22;20029;-90
2022/08/23 00:06:12;;;;;;;3.60;1.13;;;17.00;99.90;;;;;;6308149;22;20007;-88
2022/08/23 00:08:38;;;;;;;2.97;0.85;;;16.90;99.90;;;;;;6307952;22;20034;-90
2022/08/23 00:11:04;;;;;;;2.67;0.98;;;16.90;99.90;;;;;;6308033;22;20051;-89
2022/08/23 00:13:31;;;;;;;2.40;0.68;;;16.80;99.90;;;;;;6308206;22;20049;-89
2022/08/23 00:15:57;;;;;;;1.42;0.90;;;16.90;99.90;;;;;;6280574;22;20086;-89
2022/08/23 00:18:23;;;;;;;2.55;0.75;;;16.80;99.90;;;;;;6307741;22;20016;-90
2022/08/23 00:20:50;;;;;;;1.73;0.77;;;17.00;99.90;;;;;;6307619;22;20023;-90
2022/08/23 00:23:16;;;;;;;1.00;0.90;;;16.80;99.90;;;;;;6308192;22;20044;-88
2022/08/23 00:25:42;;;;;;;1.88;0.85;;;16.80;99.90;;;;;;6309296;22;20018;-85
2022/08/23 00:28:09;;;;;;;1.00;0.70;;;16.80;99.90;;;;;;6326816;22;20030;-83
2022/08/23 00:30:36;;;;;;;2.50;0.90;;;16.70;99.90;;;;;;6326015;22;20038;-83
2022/08/23 00:33:02;;;;;;;1.27;0.80;;;16.80;99.90;;;;;;6311709;22;20094;-86
2022/08/23 00:35:28;;;;;;;3.17;0.90;;;16.60;99.90;;;;;;6306893;22;20476;-85
2022/08/23 00:37:56;;;;;;;1.67;0.70;;;16.60;99.90;;;;;;6307287;22;20053;-85
2022/08/23 00:40:21;;;;;;;1.00;0.70;;;16.60;99.90;;;;;;6307243;22;20023;-89
2022/08/23 00:48:44;;;;;;;2.05;0.90;;;16.60;99.90;;;;;;6306709;22;20092;-89
2022/08/23 00:51:26;;;;;;;1.63;0.80;;;16.60;99.90;;;;;;6307313;22;20065;-88
2022/08/23 00:54:00;;;;;;;0.65;0.50;;;16.50;99.90;;;;;;6306672;22;20094;-87
2022/08/23 00:56:32;;;;;;;0.90;0.50;;;16.50;99.90;;;;;;6307263;22;20011;-88
2022/08/23 00:58:58;;;;;;;0.93;0.60;;;16.40;99.90;;;;;;6307778;22;20357;-87
2022/08/23 01:01:24;;;;;;;0.55;0.40;;;16.40;99.90;;;;;;6306747;22;20019;-86
2022/08/23 01:03:54;;;;;;;2.08;0.50;;;16.40;99.90;;;;;;6307021;22;20015;-87
2022/08/23 01:06:57;;;;;;;1.25;0.70;;;16.40;99.90;;;;;;6306762;22;20084;-88
2022/08/23 01:09:23;;;;;;;1.10;0.85;;;16.40;99.90;;;;;;6307549;22;20019;-89
2022/08/23 01:11:55;;;;;;;1.08;0.60;;;16.30;99.90;;;;;;6306687;22;20457;-90
2022/08/23 01:14:24;;;;;;;0.82;0.50;;;16.30;99.90;;;;;;6306647;22;20011;-88
2022/08/23 01:16:59;;;;;;;1.42;0.50;;;16.30;99.90;;;;;;6279410;22;20018;-89
2022/08/23 01:19:32;;;;;;;1.00;0.40;;;16.20;99.90;;;;;;6307516;22;20043;-90
2022/08/23 01:22:28;;;;;;;0.55;0.30;;;16.30;99.90;;;;;;6306435;22;20441;-90
2022/08/23 01:24:55;;;;;;;1.88;0.50;;;16.20;99.90;;;;;;6306518;22;20007;-91
2022/08/23 01:27:21;;;;;;;0.88;0.65;;;16.10;99.90;;;;;;6306722;22;20541;-90
2022/08/23 01:29:47;;;;;;;0.80;0.60;;;16.20;99.90;;;;;;6306709;22;20015;-88
2022/08/23 01:32:13;;;;;;;0.70;0.60;;;16.00;99.90;;;;;;6306725;22;20022;-90
2022/08/23 01:34:38;;;;;;;1.40;0.75;;;16.50;99.90;;;;;;6306763;22;20445;-87
2022/08/23 01:37:06;;;;;;;2.55;0.70;;;15.90;99.90;;;;;;6306861;22;20062;-89
2022/08/23 01:39:33;;;;;;;1.88;0.80;;;15.90;99.90;;;;;;6307254;22;20481;-87
2022/08/23 01:41:59;;;;;;;1.20;0.80;;;15.90;99.90;;;;;;6306493;22;20062;-89
2022/08/23 01:44:25;;;;;;;1.30;0.80;;;15.90;99.90;;;;;;6306647;22;20015;-88
2022/08/23 01:46:52;;;;;;;1.45;0.90;;;15.90;99.90;;;;;;6279273;22;20022;-85
2022/08/23 01:49:18;;;;;;;2.22;0.98;;;15.80;99.90;;;;;;6306321;22;20434;-89
2022/08/23 01:51:44;;;;;;;0.82;0.60;;;15.80;99.90;;;;;;6306261;22;20090;-89
2022/08/23 01:54:10;;;;;;;1.25;0.80;;;15.70;99.90;;;;;;6306740;22;20092;-90
2022/08/23 01:56:37;;;;;;;1.25;0.80;;;15.70;99.90;;;;;;6306098;22;20315;-90
2022/08/23 01:59:03;;;;;;;1.00;0.70;;;15.70;99.90;;;;;;6279424;22;20015;-91
2022/08/23 02:01:29;;;;;;;1.13;0.73;;;15.60;99.90;;;;;;6306675;22;20015;-90
2022/08/23 02:03:55;;;;;;;1.17;0.77;;;15.60;99.90;;;;;;6306300;22;20087;-90
2022/08/23 02:06:20;;;;;;;0.80;0.50;;;15.60;99.90;;;;;;6278751;22;20019;-91
2022/08/23 02:09:04;;;;;;;1.15;0.80;;;15.60;99.90;;;;;;6306054;22;20019;-86
2022/08/23 02:11:37;;;;;;;1.65;0.85;;;15.60;99.90;;;;;;6306526;22;20034;-91
2022/08/23 02:14:06;;;;;;;1.27;0.73;;;15.60;99.90;;;;;;6278990;22;20015;-90
2022/08/23 02:16:36;;;;;;;1.30;0.88;;;15.60;99.90;;;;;;6306555;22;20019;-87
2022/08/23 02:19:04;;;;;;;2.28;0.73;;;15.60;99.90;;;;;;6305980;22;20018;-84
2022/08/23 02:21:30;;;;;;;1.88;0.80;;;15.60;99.90;;;;;;6279066;22;20023;-88
2022/08/23 02:24:05;;;;;;;1.27;0.70;;;15.60;99.90;;;;;;6306279;22;20026;-87
2022/08/23 02:26:30;;;;;;;1.55;0.70;;;15.60;99.90;;;;;;6305406;22;20461;-88
2022/08/23 02:28:57;;;;;;;0.88;0.65;;;15.70;99.90;;;;;;6306318;22;20090;-87
2022/08/23 02:31:22;;;;;;;1.40;0.80;;;15.80;99.90;;;;;;6306469;22;20090;-87
2022/08/23 02:33:48;;;;;;;0.95;0.70;;;15.60;99.90;;;;;;6306501;22;20053;-88
2022/08/23 02:36:14;;;;;;;1.00;0.80;;;15.60;99.90;;;;;;6306466;22;20012;-85
2022/08/23 02:38:40;;;;;;;1.15;0.80;;;15.60;99.90;;;;;;6306309;22;20468;-88
2022/08/23 02:41:06;;;;;;;1.35;0.80;;;15.70;99.90;;;;;;6306636;22;20015;-89
2022/08/23 02:43:32;;;;;;;1.67;1.00;;;15.70;99.90;;;;;;6279081;22;20015;-86
2022/08/23 02:45:58;;;;;;;1.02;0.70;;;15.70;99.90;;;;;;6307001;22;20019;-90
2022/08/23 02:48:25;;;;;;;0.77;0.60;;;15.60;99.90;;;;;;6306195;22;20019;-86
2022/08/23 02:50:51;;;;;;;0.70;0.50;;;15.60;99.90;;;;;;6280364;22;20046;-89
2022/08/23 02:53:17;;;;;;;0.80;0.50;;;15.50;99.90;;;;;;6309975;22;20011;-88
2022/08/23 02:55:46;;;;;;;2.85;2.08;;;16.00;99.90;;;;;;6309955;22;20019;-90
2022/08/23 02:58:13;;;;;;;1.50;0.80;;;15.50;99.90;;;;;;6310359;22;20011;-91
2022/08/23 03:00:38;;;;;;;1.27;0.88;;;15.50;99.90;;;;;;6309413;22;20023;-90
2022/08/23 03:03:05;;;;;;;1.05;0.80;;;15.50;99.90;;;;;;6284340;22;20015;-91
2022/08/23 03:05:31;;;;;;;1.05;0.73;;;15.50;99.90;;;;;;6308366;22;20011;-90
2022/08/23 03:07:57;;;;;;;0.88;0.70;;;15.50;99.90;;;;;;6279234;22;20413;-88
2022/08/23 03:10:22;;;;;;;1.17;0.85;;;15.60;99.90;;;;;;6280537;22;20016;-86
2022/08/23 03:12:49;;;;;;;1.13;0.80;;;15.70;99.90;;;;;;6280657;22;20019;-88
2022/08/23 03:15:15;;;;;;;2.03;1.00;;;15.50;99.90;;;;;;6308147;22;20098;-87
2022/08/23 03:17:40;;;;;;;0.80;0.60;;;15.40;99.90;;;;;;6307845;22;20047;-91
2022/08/23 03:20:07;;;;;;;1.42;0.85;;;15.50;99.90;;;;;;6307692;22;20019;-88
2022/08/23 03:26:14;;;;;;;1.70;0.50;;;15.50;99.90;;;;;;6307746;22;20014;-90
2022/08/23 03:28:42;;;;;;;0.70;0.50;;;15.40;99.90;;;;;;6308062;22;20023;-90
2022/08/23 03:31:08;;;;;;;0.82;0.52;;;15.30;99.90;;;;;;6309026;22;20177;-87
2022/08/23 03:33:34;;;;;;;1.02;0.60;;;15.20;99.90;;;;;;6307678;22;20045;-89
2022/08/23 03:36:03;;;;;;;0.90;0.55;;;15.20;99.90;;;;;;6308144;22;20046;-90
2022/08/23 03:38:29;;;;;;;1.02;0.60;;;15.20;99.90;;;;;;6307191;22;20140;-89
2022/08/23 03:40:55;;;;;;;1.48;0.77;;;15.10;99.90;;;;;;6307580;22;20011;-90
2022/08/23 03:43:21;;;;;;;1.27;0.60;;;15.10;99.90;;;;;;6306925;22;20034;-90
2022/08/23 03:45:47;;;;;;;1.20;0.60;;;15.00;99.90;;;;;;6307441;22;20020;-90
2022/08/23 03:48:13;;;;;;;0.68;0.45;;;15.00;99.90;;;;;;6307215;22;20011;-91
2022/08/23 03:50:38;;;;;;;1.15;0.68;;;15.40;99.90;;;;;;6307657;22;20350;-90
2022/08/23 03:53:05;;;;;;;0.70;0.60;;;15.00;99.90;;;;;;6307341;22;20023;-90
2022/08/23 03:55:31;;;;;;;0.95;0.80;;;15.00;99.90;;;;;;6307823;22;20015;-90
2022/08/23 03:57:56;;;;;;;1.00;0.68;;;15.00;99.90;;;;;;6280352;22;20011;-90
2022/08/23 04:00:22;;;;;;;1.00;0.80;;;15.20;99.90;;;;;;6307470;22;20073;-88
2022/08/23 04:02:48;;;;;;;3.28;0.95;;;15.00;99.90;;;;;;6307516;22;20324;-90
2022/08/23 04:05:14;;;;;;;1.02;0.80;;;15.00;99.90;;;;;;6307852;22;20012;-90
2022/08/23 04:07:39;;;;;;;1.25;0.80;;;15.10;99.90;;;;;;6307261;22;20493;-91
2022/08/23 04:10:08;;;;;;;1.30;0.90;;;15.00;99.90;;;;;;6307096;22;20083;-84
2022/08/23 04:12:34;;;;;;;1.65;0.95;;;15.00;99.90;;;;;;6307262;22;20066;-90
2022/08/23 04:14:59;;;;;;;0.90;0.77;;;15.00;99.90;;;;;;6307694;22;20019;-92
2022/08/23 04:17:25;;;;;;;1.20;0.82;;;15.10;99.90;;;;;;6279670;22;20015;-89
2022/08/23 04:19:51;;;;;;;1.52;1.13;;;15.00;99.90;;;;;;6307730;22;20268;-92
2022/08/23 04:29:39;;;;;;;1.08;0.80;;;14.90;99.90;;;;;;6306514;22;20037;-82
2022/08/23 04:32:07;;;;;;;1.80;0.60;;;14.90;99.90;;;;;;6306967;22;20082;-82
2022/08/23 04:34:35;;;;;;;1.15;0.65;;;14.90;99.90;;;;;;6307176;22;20496;-82
2022/08/23 04:37:01;;;;;;;4.63;1.00;;;14.90;99.90;;;;;;6279407;22;20011;-85
2022/08/23 04:39:27;;;;;;;0.95;0.70;;;14.90;99.90;;;;;;6306952;22;20022;-81
2022/08/23 04:44:57;;;;;;;0.80;0.57;;;14.80;99.90;;;;;;6213138;23;20035;-81
2022/08/23 04:47:23;;;;;;;0.68;0.60;;;14.80;99.90;;;;;;6211714;23;20383;-83
2022/08/23 04:49:48;;;;;;;1.02;0.63;;;14.80;99.90;;;;;;6211366;23;20074;-84
2022/08/23 04:52:14;;;;;;;0.50;0.40;;;14.80;99.90;;;;;;6212057;23;20017;-85
2022/08/23 04:54:40;;;;;;;0.80;0.60;;;14.80;99.90;;;;;;6212286;23;20376;-84
2022/08/23 04:57:05;;;;;;;1.70;1.52;;;14.80;99.90;;;;;;6211701;23;20016;-83
2022/08/23 04:59:31;;;;;;;1.23;0.90;;;14.80;99.90;;;;;;6212117;23;20328;-84
2022/08/23 05:01:57;;;;;;;1.02;0.70;;;14.80;99.90;;;;;;6212069;23;20475;-82
2022/08/23 05:04:22;;;;;;;1.92;0.82;;;15.10;99.90;;;;;;6211634;23;20020;-82
2022/08/23 05:06:48;;;;;;;1.90;1.10;;;14.90;99.90;;;;;;6211787;23;20060;-81
2022/08/23 05:09:14;;;;;;;1.30;0.90;;;14.80;99.90;;;;;;6212359;23;20088;-84
2022/08/23 05:11:39;;;;;;;1.23;0.90;;;14.90;99.90;;;;;;6211796;23;20485;-83
2022/08/23 05:14:05;;;;;;;2.15;0.95;;;14.90;99.90;;;;;;6212193;23;20199;-81
2022/08/23 05:16:31;;;;;;;1.35;0.80;;;14.90;99.90;;;;;;6292566;22;20315;-81
2022/08/23 05:18:57;;;;;;;0.90;0.70;;;14.90;99.90;;;;;;6278737;22;20082;-85
2022/08/23 05:21:24;;;;;;;1.10;0.70;;;14.90;99.90;;;;;;6306777;22;20505;-81
2022/08/23 05:23:51;;;;;;;1.13;0.90;;;14.90;99.90;;;;;;6306303;22;20019;-80
2022/08/23 05:26:18;;;;;;;1.05;0.70;;;15.00;99.90;;;;;;6307176;22;20023;-83
2022/08/23 05:28:46;;;;;;;1.58;0.90;;;14.90;99.90;;;;;;6306510;22;20105;-81
2022/08/23 05:31:22;;;;;;;2.20;1.05;;;15.00;99.90;;;;;;6306768;22;20319;-82
2022/08/23 05:33:48;;;;;;;1.77;1.17;;;15.10;99.90;;;;;;6279323;22;20011;-82
2022/08/23 05:36:16;;;;;;;1.48;0.98;;;15.10;99.90;;;;;;6279065;22;20026;-81
2022/08/23 05:38:42;;;;;;;2.20;1.15;;;15.20;99.90;;;;;;6305776;22;20018;-80
2022/08/23 05:41:08;;;;;;;1.35;0.88;;;15.00;99.90;;;;;;6306317;22;20081;-82
2022/08/23 05:43:35;;;;;;;1.30;0.98;;;15.30;99.90;;;;;;6306042;22;20453;-81
2022/08/23 05:46:06;;;;;;;1.50;1.20;;;15.30;99.90;;;;;;6305898;22;20018;-82
2022/08/23 05:48:33;;;;;;;1.85;1.10;;;15.40;99.90;;;;;;6305077;22;20081;-82
2022/08/23 05:51:16;;;;;;;1.77;1.20;;;15.50;99.90;;;;;;6306380;22;20013;-82
2022/08/23 05:53:43;;;;;;;1.98;1.20;;;15.60;99.90;;;;;;6306506;22;20019;-83
2022/08/23 05:56:22;;;;;;;2.50;1.23;;;15.70;99.90;;;;;;6306032;22;20068;-83
2022/08/23 05:58:49;;;;;;;1.95;1.35;;;15.70;99.90;;;;;;6278511;22;20031;-85
2022/08/23 06:01:17;;;;;;;1.55;1.20;;;15.80;99.90;;;;;;6277599;22;20323;-83
2022/08/23 06:03:43;;;;;;;1.65;0.82;;;16.20;99.90;;;;;;6306436;22;20017;-82
2022/08/23 06:06:11;;;;;;;2.63;1.15;;;16.10;99.90;;;;;;6306618;22;20345;-81
2022/08/23 06:08:38;;;;;;;1.98;1.10;;;16.20;99.90;;;;;;6305609;22;20023;-82
2022/08/23 06:11:36;;;;;;;1.30;1.10;;;16.30;99.90;;;;;;6306081;22;20433;-84
2022/08/23 06:17:35;;;;;;;3.05;1.20;;;16.70;99.90;;;;;;6278342;22;20333;-87
2022/08/23 06:20:08;;;;;;;2.60;1.70;;;16.90;99.90;;;;;;6305274;22;20086;-87
2022/08/23 06:22:39;;;;;;;2.38;1.17;;;17.20;99.90;;;;;;6303467;22;20019;-85
2022/08/23 06:25:18;;;;;;;1.60;1.10;;;17.20;99.90;;;;;;6277385;22;20019;-85
2022/08/23 06:28:24;;;;;;;2.92;1.40;;;17.60;99.90;;;;;;6241549;23;20088;-84
2022/08/23 06:30:59;;;;;;;2.03;1.60;;;17.40;99.90;;;;;;6215731;23;20533;-86
2022/08/23 06:33:48;;;;;;;1.73;1.48;;;17.30;99.90;;;;;;6241590;23;20031;-87
2022/08/23 06:36:17;;;;;;;3.33;1.58;;;17.90;99.90;;;;;;6096187;23;20022;-91
2022/08/23 06:39:15;;;;;;;2.30;1.30;;;17.70;99.90;;;;;;6162154;22;20012;-86
2022/08/23 06:45:21;;;;;;;3.22;1.55;;;17.90;99.90;;;;;;6158818;23;20471;-86
2022/08/23 06:47:53;;;;;;;2.35;1.85;;;18.10;99.90;;;;;;6131825;23;20084;-90
2022/08/23 06:50:38;;;;;;;2.85;1.52;;;18.40;99.90;;;;;;6106803;23;20021;-90
2022/08/23 07:30:17;;;;;;;3.08;2.10;;;20.40;99.90;;;;;;6190378;23;20420;-85
2022/08/23 07:33:13;;;;;;;5.18;2.00;;;20.50;99.90;;;;;;6206477;22;20015;-86
2022/08/23 07:35:53;;;;;;;3.03;1.95;;;20.70;99.90;;;;;;6282428;22;20019;-86
2022/08/23 07:38:21;;;;;;;1.90;1.40;;;20.90;99.90;;;;;;6281590;22;20019;-87
2022/08/23 07:41:46;;;;;;;3.78;1.50;;;21.10;99.90;;;;;;6284773;22;20011;-86
2022/08/23 07:48:01;;;;;;;2.17;1.48;;;21.50;99.90;;;;;;6285219;22;20019;-89
2022/08/23 07:50:29;;;;;;;1.77;1.48;;;21.70;99.90;;;;;;6218144;23;20086;-86
2022/08/23 07:52:58;;;;;;;2.15;1.48;;;21.90;99.90;;;;;;6192190;23;20013;-86
2022/08/23 07:55:29;;;;;;;2.30;1.60;;;22.10;99.90;;;;;;6190401;23;20059;-86
2022/08/23 07:57:55;;;;;;;1.83;1.48;;;22.20;99.90;;;;;;6216733;23;20087;-85
2022/08/23 08:00:20;;;;;;;2.10;1.48;;;22.40;99.90;;;;;;6221454;23;20040;-84
2022/08/23 08:02:46;;;;;;;2.38;1.58;;;22.50;99.90;;;;;;6219072;23;20388;-86
2022/08/23 08:05:12;;;;;;;4.40;1.73;;;22.60;99.90;;;;;;6190833;23;20339;-86
2022/08/23 08:07:38;;;;;;;2.83;1.70;;;22.80;99.90;;;;;;6216941;23;20091;-86
2022/08/23 08:10:06;;;;;;;1.85;1.27;;;22.90;99.90;;;;;;6190225;23;20430;-85
2022/08/23 08:12:32;;;;;;;2.83;1.60;;;23.10;99.90;;;;;;6189927;23;20017;-86
2022/08/23 08:14:58;;;;;;;2.70;1.40;;;23.30;99.90;;;;;;6190517;23;20120;-83
2022/08/23 08:17:27;;;;;;;2.30;1.42;;;23.40;99.90;;;;;;6217301;23;20017;-87
2022/08/23 08:19:52;;;;;;;1.75;1.27;;;23.60;99.90;;;;;;6190909;23;20347;-84
2022/08/23 08:22:18;;;;;;;2.10;1.20;;;23.80;99.90;;;;;;6216914;23;20023;-84
2022/08/23 08:24:44;;;;;;;1.65;1.40;;;23.90;99.90;;;;;;6165212;23;20012;-84
2022/08/23 08:27:09;;;;;;;1.40;1.20;;;24.10;99.90;;;;;;6190440;23;20047;-82
2022/08/23 08:29:36;;;;;;;2.75;1.15;;;24.30;99.90;;;;;;6217193;23;20016;-83
2022/08/23 08:32:02;;;;;;;1.60;1.20;;;24.40;99.90;;;;;;6164739;23;20104;-82
2022/08/23 08:34:28;;;;;;;4.25;1.45;;;24.60;99.90;;;;;;6190388;23;20021;-83
2022/08/23 08:36:55;;;;;;;3.85;1.35;;;24.60;99.90;;;;;;6217346;23;20078;-83
2022/08/23 08:39:24;;;;;;;2.88;1.35;;;24.90;99.90;;;;;;6216404;23;20393;-83
2022/08/23 08:42:07;;;;;;;2.70;1.42;;;25.10;99.90;;;;;;6189968;23;20020;-83
2022/08/23 08:44:52;;;;;;;1.35;1.10;;;25.30;99.90;;;;;;6211632;23;20020;-83
2022/08/23 08:47:20;;;;;;;1.65;1.23;;;25.50;99.90;;;;;;6207934;23;20113;-82
2022/08/23 08:50:09;;;;;;;1.80;1.13;;;25.50;99.90;;;;;;6258024;23;20067;-82
2022/08/23 08:52:39;;;;;;;1.92;1.20;;;25.70;99.90;;;;;;6269530;23;20042;-83
2022/08/23 08:55:17;;;;;;;3.05;1.38;;;25.80;99.90;;;;;;6242853;23;20000;-83
2022/08/23 08:57:45;;;;;;;1.67;1.30;;;25.90;99.90;;;;;;6269598;23;20044;-84
2022/08/23 09:00:17;;;;;;;1.65;1.00;;;25.90;99.90;;;;;;6243108;23;20020;-83
2022/08/23 09:02:44;;;;;;;2.80;1.25;;;26.00;99.90;;;;;;6218695;23;20016;-84
2022/08/23 09:05:19;;;;;;;3.33;1.10;;;26.10;99.90;;;;;;6270340;23;20016;-83
2022/08/23 09:08:10;;;;;;;2.10;1.40;;;26.10;99.90;;;;;;6270456;23;20048;-84
2022/08/23 09:10:50;;;;;;;1.92;1.02;;;26.20;99.90;;;;;;6268521;23;20008;-84
2022/08/23 09:13:34;;;;;;;2.40;1.17;;;26.40;99.90;;;;;;6227641;23;20071;-82
2022/08/23 09:16:18;;;;;;;2.70;1.40;;;26.50;99.90;;;;;;6223027;23;20472;-84
2022/08/23 09:18:45;;;;;;;1.83;1.15;;;26.60;99.90;;;;;;6248562;23;20019;-83
2022/08/23 09:21:14;;;;;;;3.05;0.95;;;26.70;99.90;;;;;;6220573;23;20077;-83
2022/08/23 09:23:48;;;;;;;1.70;1.10;;;26.80;99.90;;;;;;6247707;23;20013;-84
2022/08/23 09:26:22;;;;;;;1.88;0.90;;;26.80;99.90;;;;;;6247898;23;20016;-83
2022/08/23 09:28:55;;;;;;;3.60;1.33;;;26.90;99.90;;;;;;6247719;23;20023;-83
2022/08/23 09:31:40;;;;;;;1.45;0.90;;;27.10;99.90;;;;;;6220605;23;20451;-84
2022/08/23 09:34:06;;;;;;;1.13;0.77;;;27.30;99.70;;;;;;6247276;23;20062;-84
2022/08/23 09:36:35;;;;;;;2.90;0.90;;;27.50;99.60;;;;;;6246977;23;20343;-84
2022/08/23 09:39:06;;;;;;;1.85;1.00;;;27.70;98.90;;;;;;6246576;23;20324;-83
2022/08/23 09:41:38;;;;;;;2.00;1.33;;;27.80;98.70;;;;;;6247846;23;20016;-84
2022/08/23 09:44:12;;;;;;;3.42;1.00;;;27.80;98.50;;;;;;6220473;23;20095;-84
2022/08/23 09:46:40;;;;;;;1.40;0.90;;;27.90;99.30;;;;;;6246650;23;20090;-83
2022/08/23 09:49:20;;;;;;;2.45;0.90;;;28.10;98.50;;;;;;6219553;23;20012;-84
2022/08/23 09:51:47;;;;;;;1.48;0.75;;;28.20;98.50;;;;;;6247746;23;20022;-84
2022/08/23 09:54:26;;;;;;;1.27;0.88;;;28.30;97.90;;;;;;6220865;23;20042;-84
2022/08/23 09:56:56;;;;;;;3.70;0.80;;;28.40;98.50;;;;;;6246453;23;20076;-83
2022/08/23 09:59:33;;;;;;;3.75;0.70;;;28.60;98.80;;;;;;6246839;23;20557;-84
2022/08/23 10:02:00;;;;;;;1.30;0.63;;;28.70;97.60;;;;;;6245868;23;20019;-85
2022/08/23 10:04:28;;;;;;;1.15;0.70;;;28.80;97.30;;;;;;6220009;23;20055;-84
2022/08/23 10:06:55;;;;;;;2.45;0.90;;;28.90;97.30;;;;;;6249710;23;20016;-85
2022/08/23 10:09:22;;;;;;;1.38;0.90;;;28.90;95.90;;;;;;6247888;23;20046;-85
2022/08/23 10:11:48;;;;;;;2.58;0.70;;;28.90;95.60;;;;;;6219718;23;20020;-84
2022/08/23 10:14:19;;;;;;;1.77;0.70;;;29.00;96.10;;;;;;6246218;23;20058;-84
2022/08/23 10:16:54;;;;;;;1.10;0.70;;;29.20;95.20;;;;;;6219993;23;20062;-85
2022/08/23 10:19:37;;;;;;;2.08;0.80;;;29.20;94.50;;;;;;6248521;23;20020;-84
2022/08/23 10:22:19;;;;;;;2.17;1.00;;;29.40;94.50;;;;;;6221121;23;20024;-85
2022/08/23 10:31:33;;;;;;;2.15;1.00;;;29.90;94.90;;;;;;6221093;23;20027;-86
2022/08/23 10:34:20;;;;;;;2.08;1.00;;;30.10;94.20;;;;;;6221608;23;20016;-81
2022/08/23 10:37:07;;;;;;;2.65;1.13;;;30.30;93.10;;;;;;6220249;23;20020;-82
2022/08/23 10:43:24;;;;;;;2.30;0.90;;;30.50;92.60;;;;;;6246815;23;20122;-82
2022/08/23 10:45:51;;;;;;;1.30;0.80;;;30.70;93.30;;;;;;6247282;23;20127;-83
2022/08/23 10:48:31;;;;;;;2.03;0.95;;;30.80;93.70;;;;;;6247048;23;20008;-81
2022/08/23 10:51:09;;;;;;;2.38;1.38;;;30.90;92.80;;;;;;6247870;23;20020;-85
2022/08/23 10:53:36;;;;;;;2.25;0.80;;;31.00;92.10;;;;;;6247351;23;20514;-85
2022/08/23 10:56:04;;;;;;;1.85;0.80;;;31.00;92.30;;;;;;6247832;23;20309;-84
2022/08/23 10:58:38;;;;;;;2.80;0.80;;;31.00;90.90;;;;;;6247742;23;20016;-85
2022/08/23 11:01:06;;;;;;;0.93;0.70;;;31.10;91.70;;;;;;6219975;23;20020;-81
2022/08/23 11:03:46;;;;;;;1.48;0.90;;;31.10;91.30;;;;;;6247507;23;20024;-82
2022/08/23 11:06:44;;;;;;;2.13;0.93;;;30.90;89.50;;;;;;6247125;23;20092;-81
2022/08/23 11:09:19;;;;;;;1.83;0.70;;;31.00;90.60;;;;;;6124947;23;20123;-81
2022/08/23 11:11:48;;;;;;;1.70;0.80;;;31.10;90.30;;;;;;6124715;23;20013;-82
2022/08/23 11:14:38;;;;;;;2.95;0.93;;;31.20;91.00;;;;;;6124622;23;20057;-81
2022/08/23 11:17:07;;;;;;;0.93;0.65;;;31.40;90.30;;;;;;6124653;23;20020;-82
2022/08/23 11:20:08;;;;;;;1.02;0.73;;;31.40;89.20;;;;;;6124474;23;20093;-82
2022/08/23 11:22:56;;;;;;;2.17;0.80;;;31.50;86.70;;;;;;6014157;23;20392;-80
2022/08/23 11:25:22;;;;;;;2.70;0.85;;;31.50;84.50;;;;;;6037751;23;20025;-80
2022/08/23 11:27:48;;;;;;;2.25;0.80;;;31.50;86.80;;;;;;6038021;23;20102;-81
2022/08/23 11:30:35;;;;;;;1.10;0.80;;;31.60;85.20;;;;;;6037595;23;20016;-80
2022/08/23 11:33:23;;;;;;;2.70;0.80;;;31.70;85.80;;;;;;6037956;23;20031;-81
2022/08/23 11:36:15;;;;;;;3.22;0.70;;;31.80;83.80;;;;;;6037840;23;20571;-81
2022/08/23 11:38:47;;;;;;;2.63;0.90;;;31.90;84.30;;;;;;6037925;23;20019;-82
2022/08/23 11:41:26;;;;;;;1.88;0.75;;;32.10;85.60;;;;;;6037551;23;20051;-81
2022/08/23 11:43:54;;;;;;;1.05;0.60;;;32.30;87.20;;;;;;6037814;23;20600;-81
2022/08/23 11:46:25;;;;;;;2.17;0.60;;;32.50;83.20;;;;;;6136297;23;20013;-81
2022/08/23 11:49:24;;;;;;;0.68;0.57;;;32.60;81.80;;;;;;6128623;23;20101;-81
2022/08/23 11:52:12;;;;;;;3.08;0.90;;;32.70;82.10;;;;;;6153552;23;20444;-84
2022/08/23 11:54:56;;;;;;;3.60;1.08;;;32.80;83.20;;;;;;6128757;23;20049;-84
2022/08/23 11:57:53;;;;;;;1.77;0.77;;;32.90;81.20;;;;;;6171856;23;20020;-83
2022/08/23 12:00:45;;;;;;;1.15;0.68;;;32.90;78.50;;;;;;6246137;23;20016;-83
2022/08/23 12:03:26;;;;;;;1.88;0.85;;;33.00;79.90;;;;;;6219083;23;20035;-84
2022/08/23 12:05:51;;;;;;;3.20;0.82;;;33.00;81.10;;;;;;6219170;23;20016;-83
2022/08/23 12:08:43;;;;;;;2.53;0.70;;;33.00;79.60;;;;;;6246351;23;20062;-83
2022/08/23 12:11:10;;;;;;;6.07;1.17;;;33.00;79.00;;;;;;6153286;23;20084;-85
2022/08/23 12:13:56;;;;;;;0.82;0.60;;;33.10;78.20;;;;;;6152907;23;20523;-84
2022/08/23 12:16:32;;;;;;;1.42;0.70;;;33.30;74.90;;;;;;6128610;23;20021;-84
2022/08/23 12:19:05;;;;;;;1.77;1.55;;;33.40;78.10;;;;;;6128621;23;20041;-82
2022/08/23 12:21:48;;;;;;;2.70;0.80;;;33.40;72.90;;;;;;6153029;23;20357;-84
2022/08/23 12:24:22;;;;;;;3.08;0.60;;;33.40;77.40;;;;;;6153281;23;20017;-83
2022/08/23 12:27:08;;;;;;;2.33;0.80;;;33.50;76.10;;;;;;6153197;23;20021;-84
2022/08/23 12:29:47;;;;;;;2.38;0.80;;;33.40;76.20;;;;;;6153099;23;20057;-83
2022/08/23 12:32:20;;;;;;;2.20;0.88;;;33.30;76.50;;;;;;6128507;23;20029;-84
2022/08/23 12:34:52;;;;;;;2.38;0.90;;;33.10;74.50;;;;;;6153009;23;20029;-83
2022/08/23 12:37:30;;;;;;;1.70;0.77;;;32.90;75.40;;;;;;6128684;23;20032;-84
2022/08/23 12:39:58;;;;;;;1.42;0.70;;;32.80;76.60;;;;;;6152632;23;20090;-84
2022/08/23 12:42:28;;;;;;;1.42;0.70;;;32.80;77.10;;;;;;6127865;23;20026;-84
2022/08/23 12:45:01;;;;;;;1.55;0.80;;;32.90;77.20;;;;;;6128219;23;20460;-83
2022/08/23 12:47:26;;;;;;;1.80;0.90;;;33.10;75.00;;;;;;6172969;23;20032;-84
2022/08/23 12:50:11;;;;;;;1.88;0.70;;;33.20;76.40;;;;;;6245812;23;20098;-83
2022/08/23 12:52:37;;;;;;;2.08;0.98;;;33.40;75.80;;;;;;6219507;23;20053;-84
2022/08/23 12:55:13;;;;;;;2.63;0.70;;;33.30;76.40;;;;;;6219089;23;20023;-84
2022/08/23 12:57:41;;;;;;;2.47;0.70;;;33.10;75.40;;;;;;6242968;23;20347;-84
2022/08/23 13:00:19;;;;;;;0.98;0.70;;;33.00;75.90;;;;;;6218228;23;20027;-83
2022/08/23 13:03:07;;;;;;;2.35;0.60;;;33.30;78.00;;;;;;6218268;23;20023;-82
2022/08/23 13:05:33;;;;;;;1.83;0.90;;;33.60;75.20;;;;;;6217880;23;20020;-84
2022/08/23 13:08:04;;;;;;;1.85;0.80;;;33.60;75.40;;;;;;6218386;23;20023;-84
2022/08/23 13:10:30;;;;;;;1.52;0.63;;;33.80;75.30;;;;;;6218985;23;20004;-84
2022/08/23 13:12:56;;;;;;;2.55;0.85;;;34.00;73.60;;;;;;6192472;23;20493;-85
2022/08/23 13:16:01;;;;;;;1.55;0.77;;;34.10;71.30;;;;;;6245578;23;20015;-84
2022/08/23 13:18:44;;;;;;;2.43;0.60;;;34.00;72.20;;;;;;6218272;23;20328;-84
2022/08/23 13:21:17;;;;;;;2.17;0.80;;;33.90;71.60;;;;;;6245073;23;20016;-84
2022/08/23 13:23:43;;;;;;;1.63;1.00;;;33.60;69.60;;;;;;6218020;23;20012;-83
2022/08/23 13:26:34;;;;;;;2.08;0.60;;;33.50;72.80;;;;;;6244975;23;20060;-83
2022/08/23 13:29:03;;;;;;;1.17;0.60;;;33.40;73.90;;;;;;6245351;23;20343;-83
2022/08/23 13:31:51;;;;;;;1.83;0.68;;;33.30;74.70;;;;;;6245853;23;20074;-84
2022/08/23 13:34:52;;;;;;;2.47;0.60;;;33.00;74.40;;;;;;6244428;23;20158;-83
2022/08/23 13:37:26;;;;;;;3.15;0.90;;;32.70;74.90;;;;;;6069891;23;20023;-84
2022/08/23 13:39:59;;;;;;;1.55;0.70;;;32.80;75.40;;;;;;6069539;23;20053;-84
2022/08/23 13:42:37;;;;;;;1.95;0.90;;;33.00;74.70;;;;;;6093109;23;20114;-84
2022/08/23 13:45:08;;;;;;;3.00;0.90;;;33.00;74.30;;;;;;6093422;23;20466;-83
2022/08/23 13:47:34;;;;;;;2.40;0.80;;;32.90;72.80;;;;;;6093408;23;20023;-84
2022/08/23 13:50:01;;;;;;;4.75;0.93;;;32.70;71.50;;;;;;6068599;23;20489;-82
2022/08/23 13:52:27;;;;;;;3.45;0.70;;;32.60;74.30;;;;;;6069493;23;20030;-84
2022/08/23 13:55:16;;;;;;;1.83;0.70;;;32.50;75.10;;;;;;6093586;23;20395;-87
2022/08/23 13:57:42;;;;;;;6.85;0.90;;;32.50;75.10;;;;;;5989374;23;20027;-85
2022/08/23 14:15:47;;;;;;;1.90;0.60;;;33.50;71.10;;;;;;6227717;22;20038;-83
2022/08/23 14:18:13;;;;;;;1.52;0.60;;;33.40;72.60;;;;;;6253725;22;20023;-87
2022/08/23 14:20:39;;;;;;;1.52;0.80;;;33.30;71.60;;;;;;6306758;22;20019;-86
2022/08/23 14:23:05;;;;;;;2.63;0.60;;;33.40;71.80;;;;;;6306090;22;20019;-85
2022/08/23 14:37:51;;;;;;;2.03;0.80;;;32.60;74.60;;;;;;6289770;22;20232;-84
2022/08/23 14:40:20;;;;;;;1.00;0.70;;;32.40;75.50;;;;;;6278778;22;20022;-86
2022/08/23 14:42:52;;;;;;;1.70;0.80;;;32.20;75.20;;;;;;6277840;22;20039;-87
2022/08/23 15:01:51;;;;;;;2.75;0.98;;;31.50;79.00;;;;;;6282063;22;20114;-86
2022/08/23 16:20:51;;;;;;;3.28;1.50;;;29.50;86.00;;;;;;6273256;22;19927;-87
2022/08/23 16:30:32;;;;;;;3.63;1.20;;;29.00;87.60;;;;;;6183071;23;20446;-88
2022/08/23 16:33:12;;;;;;;4.72;1.88;;;28.90;87.70;;;;;;6247200;22;20015;-89
2022/08/23 16:38:24;;;;;;;4.20;1.30;;;28.70;90.60;;;;;;6275034;22;20072;-89
2022/08/23 16:44:41;;;;;;;5.43;3.22;;;28.40;92.00;;;;;;6302392;22;20055;-88